createdAt,value
2022-10-23T00:01:29.213Z,11.60
2022-10-23T00:04:02.830Z,11.60
2022-10-23T00:06:31.780Z,11.70
2022-10-23T00:08:58.749Z,11.70
2022-10-23T00:11:28.720Z,11.70
2022-10-23T00:13:58.182Z,11.60
2022-10-23T00:16:24.979Z,11.60
2022-10-23T00:18:51.687Z,11.60
2022-10-23T00:21:18.759Z,11.50
2022-10-23T00:23:46.305Z,11.50
2022-10-23T00:26:16.798Z,11.50
2022-10-23T00:28:45.585Z,11.50
2022-10-23T00:31:12.997Z,11.40
2022-10-23T00:33:39.985Z,11.40
2022-10-23T00:36:08.505Z,11.40
2022-10-23T00:38:35.675Z,11.50
2022-10-23T00:41:02.978Z,11.50
2022-10-23T00:43:31.306Z,11.40
2022-10-23T00:45:58.710Z,11.40
2022-10-23T00:48:27.330Z,11.40
2022-10-23T00:50:54.596Z,11.30
2022-10-23T00:53:22.240Z,11.30
2022-10-23T00:55:51.399Z,11.30
2022-10-23T00:58:20.152Z,11.20
2022-10-23T01:00:55.782Z,11.30
2022-10-23T01:03:27.641Z,11.20
2022-10-23T01:06:07.456Z,11.30
2022-10-23T01:09:08.077Z,11.20
2022-10-23T01:12:11.113Z,11.10
2022-10-23T01:14:40.789Z,11.10
2022-10-23T01:17:25.658Z,11.10
2022-10-23T01:20:06.951Z,11.00
2022-10-23T01:22:47.168Z,10.90
2022-10-23T01:25:19.795Z,10.90
2022-10-23T01:27:51.088Z,10.80
2022-10-23T01:30:18.267Z,10.70
2022-10-23T01:33:01.135Z,10.60
2022-10-23T01:35:45.744Z,10.60
2022-10-23T01:38:18.354Z,10.60
2022-10-23T01:40:53.447Z,10.50
2022-10-23T01:43:24.569Z,10.30
2022-10-23T01:45:56.098Z,10.40
2022-10-23T01:48:27.367Z,10.40
2022-10-23T01:50:57.954Z,10.20
2022-10-23T01:53:27.682Z,10.30
2022-10-23T01:55:55.843Z,10.30
2022-10-23T01:58:24.162Z,10.20
2022-10-23T02:00:51.888Z,10.20
2022-10-23T02:03:19.784Z,10.20
2022-10-23T02:05:46.862Z,10.10
2022-10-23T02:08:13.913Z,10.10
2022-10-23T02:11:01.254Z,10.10
2022-10-23T02:13:38.313Z,10.00
2022-10-23T02:16:14.016Z,10.00
2022-10-23T02:19:03.097Z,10.00
2022-10-23T02:21:54.024Z,9.90
2022-10-23T02:24:36.514Z,9.90
2022-10-23T02:27:10.259Z,9.90
2022-10-23T02:29:51.753Z,9.80
2022-10-23T02:32:20.660Z,9.80
2022-10-23T02:34:48.051Z,9.80
2022-10-23T02:37:15.227Z,9.80
2022-10-23T02:39:42.294Z,9.80
2022-10-23T02:42:20.448Z,9.70
2022-10-23T02:45:07.211Z,9.70
2022-10-23T02:47:52.849Z,9.70
2022-10-23T02:50:25.548Z,9.60
2022-10-23T02:53:34.720Z,9.60
2022-10-23T02:56:22.691Z,9.50
2022-10-23T02:59:17.016Z,9.50
2022-10-23T03:01:50.197Z,9.50
2022-10-23T03:04:19.342Z,9.40
2022-10-23T03:06:46.771Z,9.40
2022-10-23T03:09:13.503Z,9.40
2022-10-23T03:11:40.299Z,9.40
2022-10-23T03:14:07.187Z,9.50
2022-10-23T03:16:33.971Z,9.30
2022-10-23T03:19:00.822Z,9.30
2022-10-23T03:21:27.572Z,9.30
2022-10-23T03:23:54.374Z,9.20
2022-10-23T03:26:21.264Z,9.20
2022-10-23T03:28:47.982Z,9.20
2022-10-23T03:31:14.764Z,9.20
2022-10-23T03:33:41.532Z,9.10
2022-10-23T03:36:08.853Z,9.10
2022-10-23T03:38:35.908Z,9.10
2022-10-23T03:41:02.698Z,9.10
2022-10-23T03:43:29.449Z,9.00
2022-10-23T03:45:57.206Z,9.00
2022-10-23T03:48:24.941Z,9.00
2022-10-23T03:50:51.973Z,8.90
2022-10-23T03:53:18.818Z,9.00
2022-10-23T03:55:45.585Z,8.90
2022-10-23T03:58:12.416Z,8.90
2022-10-23T04:00:39.258Z,8.90
2022-10-23T04:03:06.037Z,8.90
2022-10-23T04:05:32.896Z,8.90
2022-10-23T04:07:59.572Z,9.00
2022-10-23T04:10:26.479Z,9.00
2022-10-23T04:12:53.262Z,9.00
2022-10-23T04:15:20.028Z,9.00
2022-10-23T04:17:46.821Z,9.10
2022-10-23T04:20:13.633Z,9.10
2022-10-23T04:22:40.652Z,9.20
2022-10-23T04:25:08.138Z,9.30
2022-10-23T04:27:35.014Z,9.30
2022-10-23T04:30:03.578Z,9.40
2022-10-23T04:32:31.413Z,9.40
2022-10-23T04:34:58.223Z,9.30
2022-10-23T04:37:24.962Z,9.30
2022-10-23T04:39:51.808Z,9.30
2022-10-23T04:42:18.589Z,9.50
2022-10-23T04:44:45.416Z,9.60
2022-10-23T04:47:12.231Z,9.60
2022-10-23T04:49:38.960Z,9.80
2022-10-23T04:52:05.663Z,9.80
2022-10-23T04:54:39.290Z,10.00
2022-10-23T04:57:06.197Z,10.10
2022-10-23T04:59:32.977Z,10.10
2022-10-23T05:01:59.713Z,10.30
2022-10-23T05:04:26.554Z,10.40
2022-10-23T05:06:53.431Z,10.50
2022-10-23T05:09:20.215Z,10.50
2022-10-23T05:11:46.949Z,10.60
2022-10-23T05:14:13.990Z,10.70
2022-10-23T05:17:00.986Z,10.80
2022-10-23T05:19:34.796Z,10.80
2022-10-23T05:22:02.381Z,10.80
2022-10-23T05:24:29.365Z,10.80
2022-10-23T05:26:56.910Z,10.70
2022-10-23T05:29:23.771Z,10.80
2022-10-23T05:31:54.473Z,10.80
2022-10-23T05:34:25.591Z,10.80
2022-10-23T05:36:53.296Z,10.80
2022-10-23T05:39:20.798Z,10.90
2022-10-23T05:41:47.518Z,10.80
2022-10-23T05:44:14.223Z,10.80
2022-10-23T05:46:42.188Z,10.90
2022-10-23T05:49:09.782Z,11.00
2022-10-23T05:51:38.007Z,11.00
2022-10-23T05:54:08.133Z,11.10
2022-10-23T05:56:41.534Z,11.10
2022-10-23T05:59:08.914Z,11.10
2022-10-23T06:01:36.365Z,11.00
2022-10-23T06:04:04.718Z,11.00
2022-10-23T06:06:31.593Z,11.00
2022-10-23T06:08:58.394Z,11.00
2022-10-23T06:11:25.197Z,11.10
2022-10-23T06:14:33.311Z,11.00
2022-10-23T06:17:00.180Z,11.10
2022-10-23T06:19:27.493Z,11.20
2022-10-23T06:21:54.348Z,11.20
2022-10-23T06:24:21.132Z,11.30
2022-10-23T06:26:47.995Z,11.40
2022-10-23T06:29:15.211Z,11.50
2022-10-23T06:31:42.008Z,11.60
2022-10-23T06:34:11.477Z,11.70
2022-10-23T06:36:38.661Z,11.70
2022-10-23T06:39:06.339Z,11.90
2022-10-23T06:41:33.211Z,11.90
2022-10-23T06:44:00.048Z,12.00
2022-10-23T06:46:27.025Z,12.00
2022-10-23T06:48:54.024Z,12.00
2022-10-23T06:51:22.469Z,12.00
2022-10-23T06:53:49.375Z,12.10
2022-10-23T06:56:16.212Z,12.10
2022-10-23T06:58:43.078Z,12.20
2022-10-23T07:01:12.714Z,12.20
2022-10-23T07:03:40.101Z,12.30
2022-10-23T07:06:09.513Z,12.30
2022-10-23T07:08:37.723Z,12.40
2022-10-23T07:11:21.187Z,12.40
2022-10-23T07:13:48.081Z,12.50
2022-10-23T07:16:20.777Z,12.50
2022-10-23T07:18:49.224Z,12.60
2022-10-23T07:21:16.477Z,12.60
2022-10-23T07:23:43.344Z,12.70
2022-10-23T07:26:16.836Z,12.80
2022-10-23T07:28:45.152Z,12.80
2022-10-23T07:31:12.704Z,12.90
2022-10-23T07:33:40.010Z,12.90
2022-10-23T07:36:08.601Z,13.00
2022-10-23T07:38:35.913Z,13.00
2022-10-23T07:41:13.230Z,13.10
2022-10-23T07:43:40.172Z,13.20
2022-10-23T07:46:09.712Z,13.30
2022-10-23T07:48:38.177Z,13.30
2022-10-23T07:51:08.657Z,13.40
2022-10-23T07:54:54.240Z,13.50
2022-10-23T07:57:43.424Z,13.60
2022-10-23T08:00:11.890Z,13.80
2022-10-23T08:02:38.873Z,13.90
2022-10-23T08:05:06.111Z,14.00
2022-10-23T08:07:35.807Z,14.10
2022-10-23T08:10:03.372Z,14.20
2022-10-23T08:12:30.426Z,14.30
2022-10-23T08:14:57.289Z,14.40
2022-10-23T08:17:26.327Z,14.50
2022-10-23T08:19:55.317Z,14.60
2022-10-23T08:22:22.592Z,14.60
2022-10-23T08:24:49.492Z,14.70
2022-10-23T08:27:16.334Z,14.80
2022-10-23T08:29:43.273Z,14.80
2022-10-23T08:32:10.197Z,14.90
2022-10-23T08:34:37.966Z,14.80
2022-10-23T08:37:05.075Z,14.90
2022-10-23T08:39:31.903Z,14.90
2022-10-23T08:41:58.789Z,14.90
2022-10-23T08:44:50.202Z,15.00
2022-10-23T08:47:29.833Z,15.00
2022-10-23T08:50:05.496Z,15.10
2022-10-23T08:52:39.564Z,15.10
2022-10-23T08:55:17.772Z,15.20
2022-10-23T08:58:23.552Z,15.30
2022-10-23T09:00:51.664Z,15.40
2022-10-23T09:03:18.797Z,15.40
2022-10-23T09:05:57.547Z,15.60
2022-10-23T09:08:49.216Z,15.60
2022-10-23T09:11:24.342Z,15.70
2022-10-23T09:14:09.851Z,15.80
2022-10-23T09:16:58.469Z,15.90
2022-10-23T09:19:28.139Z,15.90
2022-10-23T09:21:56.511Z,15.90
2022-10-23T09:24:25.060Z,15.90
2022-10-23T09:26:54.125Z,15.80
2022-10-23T09:29:35.894Z,15.90
2022-10-23T09:32:06.361Z,16.00
2022-10-23T09:34:34.955Z,16.00
2022-10-23T09:37:17.287Z,16.00
2022-10-23T09:39:44.180Z,16.00
2022-10-23T09:42:24.731Z,16.10
2022-10-23T09:44:53.532Z,16.20
2022-10-23T09:47:24.089Z,16.30
2022-10-23T09:49:56.907Z,16.40
2022-10-23T09:52:38.309Z,16.50
2022-10-23T09:55:21.494Z,16.60
2022-10-23T09:57:48.503Z,16.70
2022-10-23T10:00:19.676Z,16.70
2022-10-23T10:03:02.938Z,16.70
2022-10-23T10:05:33.015Z,16.70
2022-10-23T10:08:26.016Z,16.70
2022-10-23T10:11:01.552Z,16.70
2022-10-23T10:13:36.626Z,16.80
2022-10-23T10:16:06.575Z,16.80
2022-10-23T10:18:50.791Z,16.90
2022-10-23T10:21:42.516Z,17.00
2022-10-23T10:24:39.217Z,17.30
2022-10-23T10:27:06.216Z,17.60
2022-10-23T10:29:48.931Z,17.90
2022-10-23T10:32:42.837Z,18.10
2022-10-23T10:35:37.614Z,18.20
2022-10-23T10:38:24.245Z,18.30
2022-10-23T10:41:27.967Z,18.30
2022-10-23T10:44:01.117Z,18.30
2022-10-23T10:46:44.462Z,18.20
2022-10-23T10:49:17.504Z,18.20
2022-10-23T10:52:07.572Z,18.30
2022-10-23T10:54:49.662Z,18.20
2022-10-23T10:57:34.964Z,18.20
2022-10-23T11:00:06.619Z,18.40
2022-10-23T11:02:43.665Z,18.50
2022-10-23T11:05:32.331Z,18.60
2022-10-23T11:08:24.998Z,18.70
2022-10-23T11:10:57.966Z,18.70
2022-10-23T11:13:40.449Z,18.50
2022-10-23T11:16:30.378Z,18.70
2022-10-23T11:19:16.183Z,18.70
2022-10-23T11:22:02.730Z,18.70
2022-10-23T11:24:35.492Z,18.70
2022-10-23T11:27:34.474Z,18.80
2022-10-23T11:30:45.506Z,18.90
2022-10-23T11:34:03.720Z,18.90
2022-10-23T11:36:48.993Z,18.90
2022-10-23T11:39:26.061Z,19.00
2022-10-23T11:42:03.937Z,19.00
2022-10-23T11:44:43.009Z,19.00
2022-10-23T11:47:27.498Z,18.90
2022-10-23T11:50:09.669Z,18.90
2022-10-23T11:53:12.928Z,18.90
2022-10-23T11:55:56.206Z,18.90
2022-10-23T11:58:31.749Z,18.80
2022-10-23T12:01:06.358Z,18.80
2022-10-23T12:03:54.792Z,18.60
2022-10-23T12:06:32.601Z,18.50
2022-10-23T12:09:06.794Z,18.40
2022-10-23T12:11:49.735Z,18.40
2022-10-23T12:14:34.866Z,18.40
2022-10-23T12:17:02.208Z,18.50
2022-10-23T12:19:44.642Z,18.50
2022-10-23T12:22:11.876Z,18.50
2022-10-23T12:24:53.963Z,18.60
2022-10-23T12:27:45.125Z,18.60
2022-10-23T12:30:22.239Z,18.60
2022-10-23T12:33:07.792Z,18.50
2022-10-23T12:35:37.604Z,18.40
2022-10-23T12:38:26.397Z,18.40
2022-10-23T12:41:17.712Z,18.20
2022-10-23T12:43:51.723Z,18.20
2022-10-23T12:47:02.303Z,18.10
2022-10-23T12:49:35.581Z,18.10
2022-10-23T12:52:15.361Z,18.10
2022-10-23T12:54:42.609Z,18.10
2022-10-23T12:57:41.993Z,18.10
2022-10-23T13:00:11.109Z,18.10
2022-10-23T13:02:38.260Z,18.00
2022-10-23T13:05:13.301Z,18.00
2022-10-23T13:07:46.297Z,18.00
2022-10-23T13:10:19.953Z,18.00
2022-10-23T13:12:58.225Z,18.00
2022-10-23T13:15:26.898Z,18.00
2022-10-23T13:17:53.836Z,17.90
2022-10-23T13:20:23.620Z,17.90
2022-10-23T13:23:00.584Z,17.90
2022-10-23T13:25:30.915Z,17.90
2022-10-23T13:28:23.643Z,17.90
2022-10-23T13:31:24.140Z,17.80
2022-10-23T13:33:59.076Z,17.80
2022-10-23T13:36:28.441Z,17.70
2022-10-23T13:39:11.934Z,17.70
2022-10-23T13:41:41.701Z,17.70
2022-10-23T13:44:16.195Z,17.70
2022-10-23T13:46:44.242Z,17.70
2022-10-23T13:49:11.247Z,17.70
2022-10-23T13:51:57.025Z,17.70
2022-10-23T13:56:55.288Z,17.80
2022-10-23T13:59:22.465Z,17.90
2022-10-23T14:01:50.958Z,17.90
2022-10-23T14:04:19.070Z,17.90
2022-10-23T14:06:47.083Z,18.00
2022-10-23T14:09:16.737Z,18.00
2022-10-23T14:11:44.367Z,18.00
2022-10-23T14:14:11.363Z,18.00
2022-10-23T14:16:41.270Z,18.00
2022-10-23T14:19:09.077Z,17.90
2022-10-23T14:21:36.168Z,17.90
2022-10-23T14:24:03.103Z,17.80
2022-10-23T14:26:30.457Z,17.70
2022-10-23T14:29:02.272Z,17.70
2022-10-23T14:31:34.051Z,17.70
2022-10-23T14:34:02.025Z,17.70
2022-10-23T14:36:38.627Z,17.70
2022-10-23T14:39:16.630Z,17.70
2022-10-23T14:41:43.815Z,17.70
2022-10-23T14:44:10.842Z,17.80
2022-10-23T14:46:38.804Z,17.80
2022-10-23T14:49:06.487Z,17.80
2022-10-23T14:51:33.894Z,17.80
2022-10-23T14:54:03.521Z,17.80
2022-10-23T14:56:36.245Z,17.80
2022-10-23T14:59:04.375Z,17.80
2022-10-23T15:01:43.738Z,17.80
2022-10-23T15:04:14.809Z,17.70
2022-10-23T15:06:47.248Z,17.70
2022-10-23T15:09:19.205Z,17.70
2022-10-23T15:11:47.933Z,17.70
2022-10-23T15:14:14.957Z,17.60
2022-10-23T15:16:42.515Z,17.60
2022-10-23T15:19:17.360Z,17.60
2022-10-23T15:21:47.082Z,17.60
2022-10-23T15:24:14.939Z,17.50
2022-10-23T15:26:43.852Z,17.50
2022-10-23T15:29:12.073Z,17.50
2022-10-23T15:31:41.261Z,17.40
2022-10-23T15:34:14.615Z,17.40
2022-10-23T15:36:43.124Z,17.30
2022-10-23T15:39:11.724Z,17.30
2022-10-23T15:41:41.864Z,17.30
2022-10-23T15:44:12.964Z,17.20
2022-10-23T15:46:40.192Z,17.10
2022-10-23T15:49:08.816Z,17.10
2022-10-23T15:51:37.219Z,17.10
2022-10-23T15:54:09.258Z,17.10
2022-10-23T15:56:36.626Z,17.00
2022-10-23T15:59:04.419Z,17.00
2022-10-23T16:01:35.109Z,16.90
2022-10-23T16:04:02.561Z,16.90
2022-10-23T16:06:30.330Z,17.00
2022-10-23T16:08:57.580Z,16.90
2022-10-23T16:11:27.401Z,16.90
2022-10-23T16:13:56.370Z,16.90
2022-10-23T16:16:24.505Z,16.90
2022-10-23T16:18:52.087Z,16.80
2022-10-23T16:21:25.171Z,16.80
2022-10-23T16:23:53.786Z,16.80
2022-10-23T16:26:21.470Z,16.80
2022-10-23T16:28:52.583Z,16.80
2022-10-23T16:31:21.302Z,16.80
2022-10-23T16:33:49.183Z,16.80
2022-10-23T16:36:17.891Z,16.80
2022-10-23T16:38:44.969Z,16.70
2022-10-23T16:41:12.285Z,16.70
2022-10-23T16:43:39.653Z,16.70
2022-10-23T16:46:15.998Z,16.70
2022-10-23T16:48:44.108Z,16.70
2022-10-23T16:51:16.785Z,16.70
2022-10-23T16:53:45.906Z,16.70
2022-10-23T16:56:16.032Z,16.70
2022-10-23T16:58:44.455Z,16.80
2022-10-23T17:01:13.171Z,16.70
2022-10-23T17:03:43.579Z,16.80
2022-10-23T17:06:13.973Z,16.70
2022-10-23T17:08:41.956Z,16.70
2022-10-23T17:11:16.112Z,16.80
2022-10-23T17:13:46.754Z,16.70
2022-10-23T17:16:22.787Z,16.80
2022-10-23T17:18:50.838Z,16.80
2022-10-23T17:21:20.685Z,16.90
2022-10-23T17:24:05.101Z,16.90
2022-10-23T17:26:44.358Z,16.90
2022-10-23T17:29:15.253Z,16.80
2022-10-23T17:31:47.975Z,16.80
2022-10-23T17:34:19.265Z,16.70
2022-10-23T17:36:49.409Z,16.50
2022-10-23T17:39:19.791Z,16.50
2022-10-23T17:41:47.481Z,16.40
2022-10-23T17:44:14.451Z,16.40
2022-10-23T17:46:41.574Z,16.30
2022-10-23T17:49:10.044Z,16.20
2022-10-23T17:51:37.369Z,16.10
2022-10-23T17:54:07.941Z,16.10
2022-10-23T17:56:37.691Z,16.10
2022-10-23T17:59:08.057Z,16.00
2022-10-23T18:01:35.634Z,16.00
2022-10-23T18:04:04.502Z,16.00
2022-10-23T18:06:40.381Z,16.00
2022-10-23T18:09:07.679Z,16.00
2022-10-23T18:11:38.010Z,16.00
2022-10-23T18:14:06.957Z,15.90
2022-10-23T18:16:36.280Z,15.90
2022-10-23T18:19:04.483Z,15.80
2022-10-23T18:21:31.923Z,15.80
2022-10-23T18:24:00.638Z,15.80
2022-10-23T18:26:31.140Z,15.80
2022-10-23T18:29:00.966Z,15.70
2022-10-23T18:31:30.588Z,15.70
2022-10-23T18:33:59.923Z,15.70
2022-10-23T18:36:30.441Z,15.60
2022-10-23T18:39:01.058Z,15.60
2022-10-23T18:41:33.879Z,15.60
2022-10-23T18:44:01.681Z,15.60
2022-10-23T18:46:28.981Z,15.60
2022-10-23T18:48:56.210Z,15.60
2022-10-23T18:51:32.260Z,15.60
2022-10-23T18:54:02.595Z,15.60
2022-10-23T18:56:30.010Z,15.60
2022-10-23T18:59:00.021Z,15.60
2022-10-23T19:01:28.794Z,15.60
2022-10-23T19:03:58.071Z,15.80
2022-10-23T19:06:25.424Z,15.90
2022-10-23T19:08:53.070Z,16.00
2022-10-23T19:11:22.056Z,16.10
2022-10-23T19:13:49.807Z,16.10
2022-10-23T19:16:21.356Z,16.10
2022-10-23T19:19:22.970Z,16.10
2022-10-23T19:21:51.040Z,16.00
2022-10-23T19:24:29.656Z,15.90
2022-10-23T19:26:59.522Z,15.80
2022-10-23T19:29:27.358Z,15.80
2022-10-23T19:31:54.901Z,15.70
2022-10-23T19:34:25.288Z,15.60
2022-10-23T19:36:55.912Z,15.60
2022-10-23T19:39:23.968Z,15.60
2022-10-23T19:41:51.889Z,15.60
2022-10-23T19:44:19.851Z,15.60
2022-10-23T19:46:47.817Z,15.50
2022-10-23T19:49:16.040Z,15.50
2022-10-23T19:51:51.060Z,15.40
2022-10-23T19:54:20.504Z,15.30
2022-10-23T19:56:48.516Z,15.30
2022-10-23T19:59:16.154Z,15.20
2022-10-23T20:01:46.379Z,15.20
2022-10-23T20:04:18.458Z,15.10
2022-10-23T20:06:46.425Z,15.10
2022-10-23T20:09:14.009Z,15.00
2022-10-23T20:11:41.938Z,15.00
2022-10-23T20:14:09.010Z,15.00
2022-10-23T20:16:38.352Z,15.00
2022-10-23T20:19:08.636Z,15.00
2022-10-23T20:21:37.584Z,15.00
2022-10-23T20:24:05.170Z,14.90
2022-10-23T20:26:32.214Z,14.90
2022-10-23T20:28:59.566Z,14.90
2022-10-23T20:31:27.673Z,14.90
2022-10-23T20:33:56.078Z,14.90
2022-10-23T20:36:27.564Z,14.90
2022-10-23T20:38:55.623Z,14.80
2022-10-23T20:41:26.579Z,14.80
2022-10-23T20:43:56.184Z,14.80
2022-10-23T20:46:23.662Z,14.80
2022-10-23T20:48:51.356Z,14.80
2022-10-23T20:51:21.717Z,14.80
2022-10-23T20:53:53.339Z,14.80
2022-10-23T20:56:33.325Z,14.80
2022-10-23T20:59:05.679Z,14.80
2022-10-23T21:01:34.163Z,14.70
2022-10-23T21:04:02.806Z,14.70
2022-10-23T21:06:45.691Z,14.70
2022-10-23T21:09:20.794Z,14.70
2022-10-23T21:11:47.862Z,14.70
2022-10-23T21:14:14.936Z,14.70
2022-10-23T21:16:46.633Z,14.60
2022-10-23T21:19:15.963Z,14.60
2022-10-23T21:21:43.901Z,14.60
2022-10-23T21:24:15.760Z,14.60
2022-10-23T21:26:43.651Z,14.50
2022-10-23T21:29:19.770Z,14.50
2022-10-23T21:31:59.727Z,14.50
2022-10-23T21:34:28.210Z,14.40
2022-10-23T21:39:44.050Z,14.40
2022-10-23T21:42:12.238Z,14.40
2022-10-23T21:44:39.277Z,14.30
2022-10-23T21:47:06.255Z,14.30
2022-10-23T21:49:33.178Z,14.30
2022-10-23T21:52:00.168Z,14.30
2022-10-23T21:54:27.149Z,14.20
2022-10-23T21:56:54.262Z,14.20
2022-10-23T21:59:25.826Z,14.30
2022-10-23T22:01:54.922Z,14.30
2022-10-23T22:04:22.452Z,14.30
2022-10-23T22:06:49.954Z,14.30
2022-10-23T22:09:19.923Z,14.40
2022-10-23T22:11:51.138Z,14.40
2022-10-23T22:14:18.565Z,14.40
2022-10-23T22:16:45.773Z,14.40
2022-10-23T22:19:14.573Z,14.40
2022-10-23T22:21:42.215Z,14.50
2022-10-23T22:24:09.836Z,14.50
2022-10-23T22:26:46.184Z,14.60
2022-10-23T22:29:16.629Z,14.60
2022-10-23T22:31:47.122Z,14.70
2022-10-23T22:34:34.862Z,14.80
2022-10-23T22:37:06.817Z,14.80
2022-10-23T22:39:33.821Z,14.80
2022-10-23T22:42:00.777Z,14.90
2022-10-23T22:44:27.813Z,14.90
2022-10-23T22:46:54.757Z,15.00
2022-10-23T22:49:21.733Z,15.00
2022-10-23T22:51:48.706Z,15.00
2022-10-23T22:54:15.945Z,15.10
2022-10-23T22:56:42.953Z,15.20
2022-10-23T22:59:10.025Z,15.30
2022-10-23T23:01:43.242Z,15.30
2022-10-23T23:04:19.761Z,15.40
2022-10-23T23:06:59.899Z,15.40
2022-10-23T23:09:26.937Z,15.50
2022-10-23T23:11:53.957Z,15.40
2022-10-23T23:14:24.143Z,15.40
2022-10-23T23:16:52.997Z,15.30
2022-10-23T23:19:20.420Z,15.30
2022-10-23T23:21:47.430Z,15.20
2022-10-23T23:24:14.547Z,15.10
2022-10-23T23:26:41.438Z,15.10
2022-10-23T23:29:08.378Z,15.00
2022-10-23T23:31:35.341Z,15.00
2022-10-23T23:34:02.394Z,15.00
2022-10-23T23:36:30.191Z,15.00
2022-10-23T23:38:57.828Z,15.00
2022-10-23T23:41:26.499Z,15.00
2022-10-23T23:43:54.997Z,15.00
2022-10-23T23:46:22.747Z,14.90
2022-10-23T23:48:50.129Z,15.00
2022-10-23T23:51:20.039Z,15.00
2022-10-23T23:53:47.559Z,15.10
2022-10-23T23:56:14.511Z,15.10
2022-10-23T23:58:41.487Z,15.10
